Terminal Aerodrome Forecast
Issued by NWS

Home | Current Version | Previous Version | Text Only | Print | Product List | Glossary On
Versions: 1 2 3 4 5 6 7 8 9 10 11 12
000
FTUS42 TJSJ 201745
TAFJSJ
TAF
TJSJ 201745Z 2018/2118 01010KT P6SM FEW030
     FM202300 00000KT P6SM VCSH SCT030
     FM211400 03010KT P6SM FEW025=

USA.gov is the U.S. government's official web portal to all federal, state and local government web resources and services.